Time;durP1;ratioP1;P1;durP2;ratioP2;P2;SDS_P1;SDS_P2;PMS_P1;PMS_P2;Temp;Humidity;BMP_temperature;BMP_pressure;BME280_temperature;BME280_humidity;BME280_pressure;Samples;Min_cycle;Max_cycle;Signal;HPM_P1;HPM_P2
2022/03/09 00:00:10;;;;;;;12.98;6.72;;;2.50;48.90;;;0.74;46.89;96507.00;4954531;28;20062;-71
2022/03/09 00:02:36;;;;;;;11.20;6.97;;;2.50;48.90;;;0.72;46.40;96501.94;4938983;28;20039;-71
2022/03/09 00:05:02;;;;;;;13.40;7.63;;;2.50;48.90;;;0.71;47.02;96512.41;4935720;28;20024;-72
2022/03/09 00:07:28;;;;;;;10.15;6.78;;;2.50;48.80;;;0.70;46.94;96521.13;4944123;28;20039;-71
2022/03/09 00:09:54;;;;;;;11.27;7.18;;;2.50;49.00;;;0.69;46.77;96525.50;4957181;28;20047;-73
2022/03/09 00:12:20;;;;;;;12.30;7.63;;;2.50;49.30;;;0.67;47.41;96529.09;4954657;28;20434;-72
2022/03/09 00:14:46;;;;;;;12.13;7.70;;;2.50;49.60;;;0.64;47.08;96526.75;4969645;28;20054;-72
2022/03/09 00:17:12;;;;;;;11.38;7.43;;;2.40;49.70;;;0.62;47.20;96526.88;4955045;28;20039;-71
2022/03/09 00:19:38;;;;;;;13.40;7.78;;;2.50;49.70;;;0.58;47.22;96526.28;4940112;29;20082;-74
2022/03/09 00:22:04;;;;;;;11.65;7.38;;;2.40;49.30;;;0.57;47.23;96523.81;4953972;28;20043;-71
2022/03/09 00:24:30;;;;;;;11.20;7.10;;;2.40;49.20;;;0.55;47.48;96529.13;4955862;28;20063;-71
2022/03/09 00:26:55;;;;;;;16.90;8.20;;;2.40;49.10;;;0.55;47.25;96528.28;4956348;28;20081;-72
2022/03/09 00:29:21;;;;;;;12.02;7.40;;;2.40;48.70;;;0.55;47.62;96529.13;4964635;28;20046;-71
2022/03/09 00:31:47;;;;;;;11.77;7.22;;;2.40;49.00;;;0.56;47.26;96535.94;4969760;28;20459;-72
2022/03/09 00:34:13;;;;;;;11.45;7.40;;;2.40;49.00;;;0.55;47.52;96523.94;4945660;28;20031;-71
2022/03/09 00:36:39;;;;;;;11.18;7.25;;;2.40;49.00;;;0.55;47.53;96523.13;4957323;28;20043;-71
2022/03/09 00:39:04;;;;;;;11.98;7.30;;;2.40;49.10;;;0.53;47.86;96525.81;4939905;28;20368;-71
2022/03/09 00:41:30;;;;;;;11.93;6.88;;;2.40;49.00;;;0.52;47.75;96524.19;4967823;28;20043;-72
2022/03/09 00:43:56;;;;;;;12.07;7.32;;;2.40;48.80;;;0.51;47.57;96527.72;4945744;28;20130;-72
2022/03/09 00:46:22;;;;;;;13.98;7.10;;;2.40;48.80;;;0.53;47.39;96530.19;4967292;28;20135;-72
2022/03/09 00:48:47;;;;;;;10.73;7.20;;;2.40;48.80;;;0.51;47.32;96527.72;4956684;28;20031;-72
2022/03/09 00:51:13;;;;;;;13.43;7.40;;;2.30;48.90;;;0.50;47.42;96530.41;4964739;28;20031;-72
2022/03/09 00:53:39;;;;;;;12.65;7.20;;;2.30;49.10;;;0.47;47.89;96521.13;4968457;28;20109;-71
2022/03/09 00:56:06;;;;;;;11.43;7.32;;;2.20;49.70;;;0.45;48.16;96522.16;4983336;28;20031;-70
2022/03/09 00:58:32;;;;;;;10.43;7.20;;;2.20;50.20;;;0.41;47.96;96520.75;4928988;28;20155;-72
2022/03/09 01:00:57;;;;;;;12.82;7.70;;;2.20;50.40;;;0.36;48.24;96513.34;4984044;28;20105;-71
2022/03/09 01:03:23;;;;;;;13.55;7.50;;;2.10;50.40;;;0.32;48.72;96511.91;4943808;28;20050;-72
2022/03/09 01:05:49;;;;;;;12.43;7.65;;;2.10;50.60;;;0.29;48.48;96515.56;4936077;28;20031;-72
2022/03/09 01:08:15;;;;;;;16.70;7.55;;;2.10;50.50;;;0.27;48.64;96508.84;4952481;28;20566;-71
2022/03/09 01:10:40;;;;;;;12.55;7.78;;;2.10;50.70;;;0.26;48.85;96513.22;4953710;28;20040;-72
2022/03/09 01:13:06;;;;;;;12.60;7.80;;;2.10;50.70;;;0.24;48.64;96509.09;4970650;28;20632;-71
2022/03/09 01:15:32;;;;;;;12.65;7.80;;;2.10;50.90;;;0.21;48.80;96511.88;4957915;28;20066;-71
2022/03/09 01:17:58;;;;;;;14.90;8.20;;;2.10;50.90;;;0.16;49.07;96506.25;4964078;28;20069;-71
2022/03/09 01:20:23;;;;;;;12.98;8.05;;;2.00;51.00;;;0.13;49.24;96512.47;4951516;28;20117;-71
2022/03/09 01:22:49;;;;;;;13.35;7.68;;;2.00;51.10;;;0.11;49.49;96510.94;4967692;28;20027;-70
2022/03/09 01:25:15;;;;;;;15.50;7.97;;;2.00;51.30;;;0.09;49.17;96508.47;4963299;28;20121;-71
2022/03/09 01:27:41;;;;;;;12.25;7.72;;;1.90;51.40;;;0.04;49.67;96508.00;4970772;28;20043;-70
2022/03/09 01:30:07;;;;;;;12.85;7.97;;;1.90;51.50;;;-0.01;49.75;96497.97;4953176;28;20537;-71
2022/03/09 01:32:33;;;;;;;13.63;8.00;;;1.80;51.60;;;-0.04;49.91;96505.97;4968466;28;20031;-70
2022/03/09 01:34:59;;;;;;;12.18;8.07;;;1.80;51.60;;;-0.08;49.50;96499.38;4961049;28;20090;-70
2022/03/09 01:37:24;;;;;;;12.85;7.13;;;1.80;51.40;;;-0.07;49.41;96495.03;4968565;28;20043;-71
2022/03/09 01:39:50;;;;;;;13.43;7.60;;;1.80;51.30;;;-0.06;49.64;96497.50;4966730;28;20067;-70
2022/03/09 01:42:16;;;;;;;12.23;8.07;;;1.80;51.10;;;-0.06;49.42;96494.91;4960353;28;20058;-70
2022/03/09 01:44:41;;;;;;;14.18;7.85;;;1.80;51.20;;;-0.08;49.63;96499.38;4951744;28;20138;-70
2022/03/09 01:47:07;;;;;;;12.52;7.82;;;1.80;51.40;;;-0.11;49.85;96502.19;4950794;28;20031;-72
2022/03/09 01:49:33;;;;;;;11.88;7.45;;;1.70;51.90;;;-0.16;50.08;96499.13;4980078;28;20035;-71
2022/03/09 01:52:00;;;;;;;13.80;7.72;;;1.60;52.00;;;-0.21;50.23;96493.47;4950913;28;20042;-71
2022/03/09 01:54:26;;;;;;;14.48;8.05;;;1.60;52.00;;;-0.26;50.42;96499.91;4965611;28;20496;-70
2022/03/09 01:56:52;;;;;;;14.27;7.50;;;1.60;51.90;;;-0.30;50.53;96491.56;4954469;28;20043;-71
2022/03/09 01:59:18;;;;;;;15.02;7.85;;;1.50;52.00;;;-0.35;50.27;96484.13;4954482;28;20074;-70
2022/03/09 02:01:45;;;;;;;13.77;8.00;;;1.50;52.00;;;-0.35;50.65;96486.72;4945610;28;20081;-71
2022/03/09 02:04:10;;;;;;;13.88;7.72;;;1.50;52.40;;;-0.37;50.67;96491.19;4985236;28;20502;-71
2022/03/09 02:06:38;;;;;;;13.73;7.65;;;1.50;52.20;;;-0.38;50.29;96486.13;4953818;28;20043;-70
2022/03/09 02:11:50;;;;;;;13.43;8.15;;;1.50;52.40;;;-0.40;50.61;96500.94;4974252;28;20093;-70
2022/03/09 02:14:49;;;;;;;15.30;8.48;;;1.40;53.30;;;-0.48;54.15;96505.81;4939954;28;20043;-70
2022/03/09 02:17:21;;;;;;;11.20;7.50;;;1.30;53.40;;;-0.51;52.30;96513.78;4945357;28;20474;-71
2022/03/09 02:19:48;;;;;;;12.85;8.20;;;1.30;53.60;;;-0.55;51.41;96504.59;4965545;28;20450;-70
2022/03/09 02:22:39;;;;;;;12.15;7.57;;;1.20;53.60;;;-0.59;54.15;96503.19;4971755;28;20042;-70
2022/03/09 02:25:15;;;;;;;10.93;7.47;;;1.20;53.70;;;-0.65;53.38;96500.13;4957014;28;20463;-70
2022/03/09 02:27:42;;;;;;;12.65;8.27;;;1.10;53.90;;;-0.68;51.14;96494.31;4957249;28;20042;-70
2022/03/09 02:30:14;;;;;;;11.80;7.88;;;1.10;53.70;;;-0.69;52.67;96492.69;4941250;28;20063;-71
2022/03/09 02:32:41;;;;;;;15.02;7.75;;;1.20;53.70;;;-0.73;51.84;96493.84;4954729;28;20615;-71
2022/03/09 02:35:09;;;;;;;14.73;8.35;;;1.10;53.60;;;-0.75;51.59;96503.44;4954763;28;20039;-72
2022/03/09 02:37:35;;;;;;;12.15;7.82;;;1.00;53.40;;;-0.78;51.75;96504.50;4961436;28;20039;-73
2022/03/09 02:40:00;;;;;;;16.00;8.25;;;1.10;53.70;;;-0.78;51.68;96509.66;4954291;28;20054;-70
2022/03/09 02:42:26;;;;;;;13.30;8.05;;;1.10;53.60;;;-0.77;51.82;96511.31;4969114;28;20507;-72
2022/03/09 02:44:52;;;;;;;15.07;8.98;;;1.10;54.00;;;-0.79;51.77;96515.75;4954396;28;20040;-71
2022/03/09 02:47:18;;;;;;;12.10;7.50;;;1.10;54.10;;;-0.79;52.00;96513.19;4947814;28;20060;-72
2022/03/09 02:49:43;;;;;;;15.90;8.95;;;1.10;54.30;;;-0.82;51.71;96507.41;4986455;28;20034;-72
2022/03/09 02:52:09;;;;;;;14.43;8.85;;;1.00;54.60;;;-0.85;52.21;96503.28;4987879;28;20066;-71
2022/03/09 02:54:35;;;;;;;15.07;8.55;;;1.00;54.70;;;-0.90;52.71;96497.63;4937400;28;20161;-71
2022/03/09 02:57:01;;;;;;;16.25;8.57;;;0.90;54.90;;;-0.92;52.35;96491.72;4940230;28;20090;-70
2022/03/09 02:59:27;;;;;;;12.90;8.52;;;0.90;54.70;;;-0.97;52.22;96484.31;4972127;28;20113;-71
2022/03/09 03:01:53;;;;;;;15.07;9.18;;;0.90;54.60;;;-0.97;52.44;96493.81;4971588;28;20475;-71
2022/03/09 03:04:19;;;;;;;15.25;9.60;;;0.90;54.80;;;-1.00;52.79;96489.69;4956230;28;20129;-71
2022/03/09 03:06:45;;;;;;;15.80;8.95;;;0.80;55.00;;;-1.04;53.04;96497.78;4956977;28;20482;-72
2022/03/09 03:09:10;;;;;;;15.45;9.45;;;0.80;55.30;;;-1.05;53.06;96503.88;4954327;28;20036;-70
2022/03/09 03:11:36;;;;;;;15.05;9.23;;;0.80;55.30;;;-1.06;52.74;96515.13;4962753;28;20391;-71
2022/03/09 03:14:02;;;;;;;14.63;9.32;;;0.80;55.30;;;-1.12;53.24;96513.81;4971625;28;20047;-70
2022/03/09 03:16:27;;;;;;;19.98;9.93;;;0.70;55.60;;;-1.17;53.57;96517.63;4940963;28;20047;-70
2022/03/09 03:18:53;;;;;;;15.10;9.18;;;0.70;55.60;;;-1.21;53.57;96521.34;4958601;28;20138;-71
2022/03/09 03:21:19;;;;;;;14.68;9.00;;;0.70;55.80;;;-1.24;53.13;96515.47;4960875;28;20065;-71
2022/03/09 03:23:45;;;;;;;15.73;9.88;;;0.60;56.00;;;-1.26;53.38;96521.69;4956487;28;20500;-70
2022/03/09 03:26:10;;;;;;;15.77;9.35;;;0.60;56.10;;;-1.30;54.10;96526.22;4935681;28;20042;-70
2022/03/09 03:28:36;;;;;;;13.90;9.35;;;0.60;56.10;;;-1.32;53.63;96530.69;4988359;28;20030;-71
2022/03/09 03:31:02;;;;;;;17.30;9.77;;;0.60;56.20;;;-1.35;54.14;96535.22;4928625;29;20031;-71
2022/03/09 03:33:28;;;;;;;16.80;9.95;;;0.50;56.20;;;-1.41;54.09;96546.75;4945762;28;20563;-71
2022/03/09 03:35:54;;;;;;;18.55;9.98;;;0.40;56.40;;;-1.45;54.40;96557.41;4942012;29;20046;-71
2022/03/09 03:38:20;;;;;;;14.48;9.32;;;0.40;56.70;;;-1.47;54.01;96557.50;4951391;28;20058;-71
2022/03/09 03:40:45;;;;;;;16.38;10.18;;;0.40;56.70;;;-1.49;54.25;96553.38;4953594;28;20027;-66
2022/03/09 03:43:11;;;;;;;17.85;10.27;;;0.40;56.70;;;-1.52;54.56;96554.44;4957573;28;20053;-72
2022/03/09 03:45:37;;;;;;;15.40;10.35;;;0.30;56.70;;;-1.57;54.41;96553.91;4958327;28;20043;-70
2022/03/09 03:48:03;;;;;;;14.02;10.02;;;0.30;57.00;;;-1.63;54.85;96544.81;4972029;28;20105;-69
2022/03/09 03:50:28;;;;;;;18.20;10.13;;;0.20;57.40;;;-1.69;54.96;96547.00;4974181;28;20487;-68
2022/03/09 03:52:54;;;;;;;16.95;9.93;;;0.10;57.70;;;-1.77;55.21;96537.19;4954427;28;20121;-68
2022/03/09 03:55:20;;;;;;;17.83;10.68;;;0.00;58.20;;;-1.79;55.12;96540.81;4973504;28;20034;-67
2022/03/09 03:57:46;;;;;;;14.80;9.48;;;0.10;58.20;;;-1.81;55.66;96550.38;4971182;28;20125;-66
2022/03/09 04:00:12;;;;;;;16.95;10.88;;;0.00;58.40;;;-1.85;55.80;96548.00;4967423;28;20031;-66
2022/03/09 04:02:38;;;;;;;17.40;10.43;;;0.10;58.50;;;-1.87;55.72;96555.00;4962232;28;20057;-66
2022/03/09 04:05:05;;;;;;;16.85;10.40;;;0.00;58.70;;;-1.90;55.98;96570.69;4954770;28;20034;-66
2022/03/09 04:07:31;;;;;;;16.83;10.85;;;0.00;58.60;;;-1.95;56.25;96565.00;4978522;28;20591;-66
2022/03/09 04:09:57;;;;;;;20.40;11.10;;;0.00;59.00;;;-1.98;56.33;96562.63;4970584;28;20039;-66
2022/03/09 04:12:24;;;;;;;20.15;10.80;;;0.00;59.20;;;-2.00;56.60;96564.50;4967967;28;20088;-67
2022/03/09 04:14:50;;;;;;;20.35;11.23;;;0.00;59.20;;;-2.01;56.55;96574.91;4968656;28;20043;-67
2022/03/09 04:17:16;;;;;;;17.05;10.80;;;0.00;59.20;;;-2.02;56.87;96570.69;4966061;28;20031;-67
2022/03/09 04:19:42;;;;;;;17.10;10.13;;;0.00;59.30;;;-2.03;56.74;96564.69;4952650;28;20054;-67
2022/03/09 04:22:07;;;;;;;17.48;11.30;;;0.00;59.50;;;-2.03;57.02;96571.63;4970494;28;20042;-67
2022/03/09 04:24:33;;;;;;;20.98;10.38;;;0.00;59.60;;;-2.01;56.89;96573.16;4968468;28;20074;-67
2022/03/09 04:26:59;;;;;;;17.02;10.48;;;0.00;59.40;;;-2.02;57.04;96579.25;4954205;28;20046;-67
2022/03/09 04:29:25;;;;;;;16.88;10.63;;;0.00;59.40;;;-2.01;56.86;96578.31;4941120;28;20062;-66
2022/03/09 04:31:50;;;;;;;19.08;11.20;;;0.00;59.30;;;-2.01;57.38;96583.47;4970422;28;20042;-65
2022/03/09 04:34:16;;;;;;;21.55;10.32;;;0.00;59.40;;;-2.01;57.04;96580.91;4959417;28;20027;-66
2022/03/09 04:36:42;;;;;;;18.95;10.23;;;0.00;59.30;;;-2.01;57.16;96573.16;4951039;28;20032;-66
2022/03/09 04:39:07;;;;;;;17.58;10.65;;;0.00;59.20;;;-2.00;57.62;96584.28;4953323;28;20035;-66
2022/03/09 04:41:33;;;;;;;18.02;10.20;;;0.00;59.10;;;-2.00;57.49;96584.28;4951920;28;20466;-66
2022/03/09 04:43:59;;;;;;;18.65;10.43;;;0.00;59.50;;;-2.01;57.59;96591.19;4933840;28;20578;-66
2022/03/09 04:46:25;;;;;;;19.88;10.48;;;0.00;59.20;;;-2.01;57.52;96595.53;4969319;28;20387;-69
2022/03/09 04:48:50;;;;;;;17.33;10.15;;;0.00;59.40;;;-2.02;57.69;96592.13;4964273;28;20082;-69
2022/03/09 04:51:16;;;;;;;17.23;10.52;;;0.00;59.30;;;-2.03;57.59;96590.47;4952043;28;20042;-69
2022/03/09 04:53:42;;;;;;;17.48;10.10;;;0.00;59.60;;;-2.04;57.54;96598.28;4951607;28;20046;-72
2022/03/09 04:56:08;;;;;;;18.52;10.55;;;0.00;59.80;;;-2.07;57.94;96594.16;4957469;28;20140;-72
2022/03/09 04:58:34;;;;;;;16.48;10.13;;;-3276.70;59.80;;;-2.09;58.15;96593.44;4962968;28;20030;-71
2022/03/09 05:01:00;;;;;;;16.15;10.50;;;0.00;59.90;;;-2.10;57.63;96598.69;4978058;28;20527;-70
2022/03/09 05:03:25;;;;;;;17.35;10.35;;;-3276.70;59.70;;;-2.12;58.05;96603.13;4967533;28;20037;-71
2022/03/09 05:05:51;;;;;;;25.17;14.52;;;-3276.70;59.90;;;-2.14;58.24;96604.97;4970145;28;20054;-72
2022/03/09 05:08:17;;;;;;;31.20;16.95;;;-3276.70;60.80;;;-2.19;58.91;96600.94;4954188;28;20055;-71
2022/03/09 05:10:43;;;;;;;22.70;13.95;;;-3276.60;61.60;;;-2.21;58.95;96601.97;4951880;28;21978;-71
2022/03/09 05:13:08;;;;;;;17.70;10.85;;;-3276.70;61.90;;;-2.21;58.74;96601.97;4951112;28;20545;-73
2022/03/09 05:15:34;;;;;;;18.02;10.93;;;-3276.70;61.10;;;-2.18;58.83;96607.75;4934988;28;20039;-70
2022/03/09 05:18:00;;;;;;;21.95;11.00;;;-3276.70;60.70;;;-2.15;58.52;96606.72;4981021;28;20585;-71
2022/03/09 05:20:25;;;;;;;31.08;18.75;;;-3276.70;60.40;;;-2.13;59.27;96610.03;4986022;28;20057;-71
2022/03/09 05:22:51;;;;;;;38.67;20.77;;;0.00;60.90;;;-2.10;59.19;96616.72;4984319;28;20026;-70
2022/03/09 05:25:17;;;;;;;24.23;13.75;;;0.00;60.70;;;-2.07;59.09;96619.09;4950890;28;20032;-71
2022/03/09 05:27:43;;;;;;;16.00;10.82;;;0.00;59.90;;;-2.04;58.79;96619.72;4967210;28;20034;-71
2022/03/09 05:30:09;;;;;;;20.42;12.20;;;0.00;59.20;;;-2.03;58.56;96616.25;4951480;28;20424;-70
2022/03/09 05:32:36;;;;;;;20.00;12.98;;;0.00;59.00;;;-1.99;58.64;96612.56;4963309;28;20481;-71
2022/03/09 05:35:03;;;;;;;18.38;11.15;;;0.00;58.90;;;-2.00;58.34;96618.63;4953711;28;20106;-71
2022/03/09 05:37:29;;;;;;;17.88;10.95;;;0.00;58.80;;;-1.96;58.16;96614.91;4932577;28;20051;-71
2022/03/09 05:39:55;;;;;;;22.67;10.13;;;0.10;58.90;;;-1.95;58.59;96618.31;4934833;28;20039;-71
2022/03/09 05:42:21;;;;;;;16.65;9.52;;;0.10;59.00;;;-1.94;58.13;96619.97;4966712;28;20042;-71
2022/03/09 05:44:46;;;;;;;19.25;10.52;;;0.10;58.40;;;-1.95;58.53;96624.31;4937999;28;20024;-71
2022/03/09 05:47:12;;;;;;;17.63;10.63;;;0.00;59.30;;;-1.98;58.29;96624.50;4974502;28;20039;-71
2022/03/09 05:49:38;;;;;;;26.15;11.98;;;0.00;59.00;;;-1.96;58.24;96620.09;4935730;28;20392;-71
2022/03/09 05:52:04;;;;;;;20.45;13.25;;;0.00;59.70;;;-1.97;58.19;96620.19;4969398;28;20550;-70
2022/03/09 05:54:30;;;;;;;17.17;10.20;;;0.10;59.10;;;-1.98;58.29;96613.38;4973985;28;20126;-71
2022/03/09 05:56:56;;;;;;;21.80;14.02;;;0.00;59.10;;;-2.01;58.59;96619.56;4970883;28;20137;-71
2022/03/09 05:59:21;;;;;;;157.65;83.15;;;0.00;59.00;;;-2.05;58.25;96612.91;4957960;28;20118;-70
2022/03/09 06:01:47;;;;;;;52.97;30.67;;;0.00;58.90;;;-2.07;58.69;96617.34;4969810;28;20537;-71
2022/03/09 06:04:13;;;;;;;24.58;13.93;;;0.00;59.20;;;-2.08;58.62;96610.53;4985762;28;20495;-70
2022/03/09 06:06:38;;;;;;;17.20;11.13;;;0.00;59.00;;;-2.07;58.68;96619.94;4953325;28;20039;-71
2022/03/09 06:09:04;;;;;;;18.90;11.55;;;0.00;59.30;;;-2.07;58.96;96614.78;4969632;28;20081;-71
2022/03/09 06:11:30;;;;;;;20.13;11.80;;;0.00;59.30;;;-2.04;58.74;96624.06;4986021;28;20031;-70
2022/03/09 06:13:56;;;;;;;22.30;12.32;;;0.10;59.10;;;-2.08;58.93;96618.28;4985777;28;20034;-71
2022/03/09 06:16:21;;;;;;;17.80;10.90;;;0.00;59.40;;;-2.07;58.97;96614.78;4969603;28;20042;-72
2022/03/09 06:18:48;;;;;;;21.80;11.50;;;0.00;59.30;;;-2.05;59.30;96628.38;4969236;28;20502;-71
2022/03/09 06:21:14;;;;;;;18.05;11.07;;;0.00;59.30;;;-2.02;58.98;96629.97;4953475;28;20045;-71
2022/03/09 06:23:40;;;;;;;17.40;11.10;;;0.10;59.70;;;-2.01;59.00;96629.88;4953717;28;20039;-71
2022/03/09 06:26:06;;;;;;;19.42;11.65;;;0.10;59.60;;;-1.97;58.98;96630.50;4953233;28;20891;-71
2022/03/09 06:28:32;;;;;;;19.42;11.98;;;0.10;59.00;;;-1.97;58.83;96631.31;4937254;28;20034;-72
2022/03/09 06:30:58;;;;;;;21.45;11.52;;;0.20;58.80;;;-1.96;58.73;96630.38;4953530;28;20023;-71
2022/03/09 06:33:24;;;;;;;19.25;11.13;;;0.20;58.60;;;-1.92;58.89;96629.25;4937617;28;20037;-70
2022/03/09 06:35:50;;;;;;;51.28;29.40;;;0.30;58.50;;;-1.86;58.98;96628.03;4952702;28;20074;-71
2022/03/09 06:38:15;;;;;;;36.22;22.13;;;0.40;59.20;;;-1.79;59.13;96625.91;4969570;28;20035;-70
2022/03/09 06:40:42;;;;;;;38.40;22.83;;;0.50;59.10;;;-1.71;59.58;96628.78;4969335;28;20085;-71
2022/03/09 06:43:08;;;;;;;37.20;19.90;;;0.60;58.30;;;-1.64;59.25;96627.44;4941064;28;20495;-71
2022/03/09 06:45:34;;;;;;;18.23;11.80;;;0.70;57.60;;;-1.59;58.99;96627.97;4938228;29;20037;-71
2022/03/09 06:48:01;;;;;;;17.48;10.27;;;0.90;57.00;;;-1.48;58.67;96620.34;4942630;28;20035;-71
2022/03/09 06:50:27;;;;;;;18.73;10.52;;;1.00;56.60;;;-1.37;58.71;96630.78;4970533;28;20035;-71
2022/03/09 06:52:53;;;;;;;18.48;9.60;;;1.20;56.00;;;-1.21;58.66;96632.34;4954958;28;20042;-71
2022/03/09 06:55:18;;;;;;;19.20;10.60;;;1.50;55.40;;;-1.07;58.31;96637.41;4970232;28;20035;-71
2022/03/09 06:57:44;;;;;;;19.65;10.38;;;1.70;54.70;;;-0.93;58.38;96634.69;4954034;28;20074;-70
2022/03/09 07:00:11;;;;;;;20.67;10.55;;;1.90;54.20;;;-0.74;58.33;96642.00;4954839;28;20038;-70
2022/03/09 07:02:38;;;;;;;18.05;10.57;;;2.10;53.90;;;-0.58;58.09;96631.44;4955368;28;20036;-71
2022/03/09 07:05:05;;;;;;;17.90;9.43;;;2.40;52.70;;;-0.40;57.69;96633.56;4931748;29;20043;-71
2022/03/09 07:07:32;;;;;;;17.33;10.00;;;2.70;52.10;;;-0.24;57.76;96643.59;4953629;28;20514;-71
2022/03/09 07:09:58;;;;;;;15.15;9.45;;;2.90;51.20;;;-0.05;57.08;96643.94;4953377;28;20031;-71
2022/03/09 07:12:23;;;;;;;17.83;9.93;;;3.20;50.10;;;0.18;56.91;96649.22;4953286;28;20094;-72
2022/03/09 07:14:49;;;;;;;17.38;9.25;;;3.40;49.80;;;0.37;57.17;96639.19;4939408;28;20039;-72
2022/03/09 07:17:15;;;;;;;19.67;9.88;;;3.60;49.00;;;0.62;56.65;96653.72;4956494;28;20034;-71
2022/03/09 07:19:41;;;;;;;18.65;10.75;;;4.00;47.80;;;0.84;55.82;96647.75;4952491;28;20455;-72
2022/03/09 07:22:07;;;;;;;18.08;10.52;;;4.20;47.40;;;1.04;55.50;96649.66;4953146;28;20040;-71
2022/03/09 07:24:33;;;;;;;27.75;17.15;;;4.40;46.50;;;1.24;55.52;96653.34;4964216;28;20053;-72
2022/03/09 07:26:59;;;;;;;31.20;20.60;;;4.80;46.50;;;1.51;55.68;96642.59;4940638;28;20126;-71
2022/03/09 07:29:24;;;;;;;22.15;13.10;;;5.20;45.60;;;1.77;54.42;96643.13;4956617;28;20043;-72
2022/03/09 07:31:51;;;;;;;26.55;15.57;;;5.60;44.00;;;2.05;53.46;96647.81;4956431;28;20062;-72
2022/03/09 07:34:16;;;;;;;24.48;17.85;;;6.00;43.00;;;2.30;52.89;96651.84;4924650;28;20073;-72
2022/03/09 07:36:42;;;;;;;14.23;10.10;;;6.30;41.80;;;2.56;52.66;96661.88;4971670;28;20162;-72
2022/03/09 07:39:09;;;;;;;15.13;10.30;;;6.60;41.40;;;2.84;51.95;96655.22;4973719;28;20039;-71
2022/03/09 07:41:35;;;;;;;13.23;9.75;;;7.10;40.80;;;3.12;51.65;96658.91;4956450;28;20102;-72
2022/03/09 07:44:01;;;;;;;15.18;10.27;;;7.40;40.00;;;3.35;51.09;96655.19;4955974;28;20062;-72
2022/03/09 07:46:26;;;;;;;16.23;9.60;;;7.80;39.10;;;3.62;50.49;96655.47;4971584;28;20410;-72
2022/03/09 07:48:52;;;;;;;13.30;9.80;;;8.20;38.00;;;3.86;49.27;96656.88;4965806;28;20051;-73
2022/03/09 07:51:18;;;;;;;15.25;9.63;;;8.60;36.70;;;4.15;49.11;96660.34;4953065;28;20063;-71
2022/03/09 07:53:45;;;;;;;15.80;9.23;;;9.10;36.00;;;4.43;48.88;96648.31;4935949;28;20058;-72
2022/03/09 07:56:11;;;;;;;13.60;8.98;;;9.60;35.90;;;4.68;48.42;96652.13;4936627;28;20054;-72
2022/03/09 07:58:37;;;;;;;12.18;9.60;;;9.90;34.60;;;4.90;48.07;96645.78;4936493;28;20104;-72
2022/03/09 08:01:03;;;;;;;15.05;8.75;;;10.20;33.90;;;5.13;46.77;96656.72;4952516;28;20838;-72
2022/03/09 08:03:29;;;;;;;13.02;9.57;;;10.60;33.20;;;5.35;46.17;96658.97;4957532;28;20062;-73
2022/03/09 08:05:54;;;;;;;17.50;9.80;;;10.60;32.60;;;5.54;46.06;96666.75;4971572;28;20042;-73
2022/03/09 08:08:20;;;;;;;14.18;9.20;;;11.00;32.00;;;5.78;45.86;96657.56;4949127;28;20090;-72
2022/03/09 08:10:46;;;;;;;13.25;8.95;;;11.40;31.70;;;6.06;45.33;96667.03;4920281;28;20418;-72
2022/03/09 08:13:12;;;;;;;17.83;13.38;;;11.80;30.90;;;6.31;45.21;96667.28;4936289;28;20126;-72
2022/03/09 08:15:37;;;;;;;16.75;10.88;;;12.10;31.20;;;6.61;45.21;96682.63;4968053;28;20581;-73
2022/03/09 08:18:04;;;;;;;16.90;12.15;;;12.60;30.60;;;6.87;43.69;96667.00;4952451;28;20031;-72
2022/03/09 08:20:30;;;;;;;16.58;10.20;;;12.90;29.50;;;7.13;43.86;96667.00;4952263;28;20062;-73
2022/03/09 08:22:55;;;;;;;13.90;9.35;;;13.20;28.80;;;7.43;42.76;96673.56;4971329;28;20055;-73
2022/03/09 08:25:21;;;;;;;12.27;8.57;;;13.50;28.00;;;7.71;41.94;96662.91;4955284;28;20034;-73
2022/03/09 08:27:47;;;;;;;13.43;8.75;;;13.60;27.30;;;8.01;41.18;96667.59;4987549;28;20030;-72
2022/03/09 08:30:13;;;;;;;10.82;8.45;;;14.10;26.40;;;8.24;40.43;96665.22;4971463;28;20034;-73
2022/03/09 08:32:38;;;;;;;14.05;9.18;;;14.30;26.40;;;8.51;40.64;96667.59;4976415;28;20071;-72
2022/03/09 08:35:05;;;;;;;15.45;8.63;;;14.60;26.60;;;8.77;39.71;96658.75;4965518;28;20038;-72
2022/03/09 08:37:30;;;;;;;15.77;8.73;;;14.80;25.60;;;9.03;39.13;96669.88;4955429;28;20097;-72
2022/03/09 08:39:56;;;;;;;15.35;9.55;;;15.20;25.80;;;9.31;39.27;96666.94;4955085;28;20494;-73
2022/03/09 08:42:22;;;;;;;11.18;8.57;;;15.40;25.40;;;9.56;38.76;96665.88;4939360;28;20035;-73
2022/03/09 08:44:48;;;;;;;16.23;8.85;;;15.70;24.80;;;9.87;37.79;96659.84;4970514;28;20062;-73
2022/03/09 08:47:14;;;;;;;13.05;8.60;;;16.10;24.00;;;10.12;38.00;96661.38;4978822;28;20414;-73
2022/03/09 08:49:40;;;;;;;12.32;8.27;;;16.20;24.10;;;10.33;36.34;96664.25;4961802;28;20527;-73
2022/03/09 08:52:10;;;;;;;11.02;8.20;;;16.30;22.50;;;10.67;34.14;96655.19;4951466;28;20041;-73
2022/03/09 08:54:37;;;;;;;16.60;7.95;;;16.60;22.80;;;10.91;34.59;96662.06;4950871;28;20530;-72
2022/03/09 08:57:03;;;;;;;10.00;7.30;;;16.60;21.80;;;11.20;34.30;96656.84;4935692;28;20079;-72
2022/03/09 08:59:29;;;;;;;10.60;7.65;;;17.10;22.00;;;11.55;34.65;96651.91;4935360;29;20126;-71
2022/03/09 09:01:55;;;;;;;9.90;7.75;;;17.50;21.80;;;11.86;33.58;96647.28;4935782;28;20039;-72
2022/03/09 09:04:21;;;;;;;10.85;7.78;;;17.90;21.80;;;12.17;33.56;96647.06;4952471;28;20039;-73
2022/03/09 09:06:46;;;;;;;12.90;8.90;;;18.00;22.00;;;12.53;33.56;96648.88;4938179;28;20290;-72
2022/03/09 09:09:14;;;;;;;10.48;7.95;;;18.40;21.20;;;12.82;33.00;96648.75;4954786;28;20055;-73
2022/03/09 09:11:40;;;;;;;11.82;7.72;;;18.40;20.50;;;13.02;32.22;96648.09;4971007;28;20043;-72
2022/03/09 09:14:06;;;;;;;9.82;6.80;;;18.40;21.20;;;13.22;31.80;96650.94;4954758;28;20034;-71
2022/03/09 09:16:32;;;;;;;8.38;6.65;;;18.60;20.90;;;13.49;31.28;96648.28;4938206;28;20038;-73
2022/03/09 09:18:58;;;;;;;10.50;7.32;;;19.10;20.70;;;13.77;30.85;96647.44;4932257;29;20070;-73
2022/03/09 09:21:24;;;;;;;10.85;6.95;;;19.20;20.10;;;14.03;30.90;96652.88;4951286;28;20043;-72
2022/03/09 09:23:50;;;;;;;13.52;7.53;;;19.60;19.70;;;14.27;30.70;96651.53;4951595;28;20110;-72
2022/03/09 09:26:16;;;;;;;8.15;6.72;;;19.80;19.50;;;14.54;29.96;96655.09;4967467;28;20154;-72
2022/03/09 09:28:42;;;;;;;11.25;6.80;;;19.90;19.80;;;14.67;29.65;96649.81;4952074;28;20051;-72
2022/03/09 09:31:08;;;;;;;9.73;6.93;;;19.90;19.30;;;14.90;29.33;96643.34;4954727;28;20027;-73
2022/03/09 09:33:34;;;;;;;10.57;6.45;;;20.20;18.80;;;15.08;29.22;96653.34;4936947;28;20045;-73
2022/03/09 09:36:00;;;;;;;12.85;7.78;;;20.10;18.20;;;15.18;28.36;96651.94;4950747;28;20042;-72
2022/03/09 09:38:27;;;;;;;9.93;7.20;;;20.40;18.20;;;15.47;28.36;96647.22;4985886;28;20116;-72
2022/03/09 09:40:55;;;;;;;9.02;7.10;;;21.00;18.00;;;15.65;27.65;96642.13;4954453;28;20654;-73
2022/03/09 09:43:21;;;;;;;10.90;7.18;;;21.60;17.30;;;15.85;27.77;96642.88;4969921;28;20144;-72
2022/03/09 09:45:47;;;;;;;11.18;7.40;;;21.90;17.10;;;16.07;26.30;96639.94;4945272;28;20109;-71
2022/03/09 09:48:12;;;;;;;10.55;7.75;;;22.40;16.90;;;16.28;27.36;96637.00;4961411;28;20086;-73
2022/03/09 09:50:39;;;;;;;8.93;6.93;;;23.00;16.70;;;16.56;26.85;96638.50;4966580;28;20039;-72
2022/03/09 09:53:07;;;;;;;12.35;7.13;;;23.50;16.10;;;16.68;26.07;96642.13;4954020;28;20031;-72
2022/03/09 09:55:33;;;;;;;11.30;7.38;;;23.80;15.40;;;16.87;25.91;96630.56;4985631;28;20035;-72
2022/03/09 09:57:59;;;;;;;10.30;6.55;;;24.60;15.00;;;17.08;25.51;96632.84;4969838;28;20043;-72
2022/03/09 10:00:25;;;;;;;8.80;7.05;;;25.30;14.40;;;17.38;25.78;96632.19;4986478;28;20130;-73
2022/03/09 10:02:51;;;;;;;10.75;7.10;;;25.90;14.20;;;17.65;26.44;96630.94;4985807;28;20034;-72
2022/03/09 10:05:17;;;;;;;11.38;8.63;;;26.60;13.40;;;18.11;26.38;96623.50;4985169;28;20035;-72
2022/03/09 10:08:04;;;;;;;14.48;10.10;;;27.50;13.10;;;18.81;22.33;96631.81;4955724;28;20102;-72
2022/03/09 10:10:41;;;;;;;7.63;6.75;;;28.60;12.10;;;19.38;22.51;96624.94;4969714;28;20121;-72
2022/03/09 10:13:18;;;;;;;9.98;6.93;;;29.10;11.60;;;19.99;22.46;96626.31;4969937;28;20721;-72
2022/03/09 10:15:45;;;;;;;9.90;6.97;;;30.20;11.10;;;20.42;24.82;96627.75;4986277;28;20529;-72